Flight Track Log - Related Links

Times and Time Zones

All times are in EDT time to prevent confusion due to time zone crossing. See the N650SG flight status page for this flight to view local times or setup timezone preferences in your user account.

Time Position Orientation Groundspeed Altitude Reporting Facility
EDT Latitude Longitude Course Direction KTS MPH feet Rate Location/Type
Tue 12:38:45 PM 36.8528 -87.4817 187° South 160 184 900  Level Memphis Center
Tue 12:39:43 PM 36.8092 -87.4883 187° South 463 533 2,500 1,729 Climbing Memphis Center
Tue 12:40:43 PM 36.8031 -87.4108 96° East 293 337 4,300 2,100 Climbing Memphis Center
Tue 12:41:43 PM 36.8153 -87.3092 81° East 293 337 6,700 2,450 Climbing Memphis Center
Tue 12:42:43 PM 36.8275 -87.2156 81° East 293 337 9,200 1,900 Climbing Memphis Center
Tue 12:43:43 PM 36.8392 -87.1061 82° East 303 349 10,500 1,050 Climbing Memphis Center
Tue 12:44:43 PM 36.8569 -86.9861 79° East 335 386 11,300 1,100 Climbing Memphis Center
Tue 12:45:43 PM 36.8761 -86.8506 80° East 354 407 12,700 1,250 Climbing Memphis Center
Tue 12:46:43 PM 36.8933 -86.7253 80° East 359 413 13,800 1,050 Climbing Memphis Center
Tue 12:47:43 PM 36.9081 -86.5947 82° East 364 419 14,800 1,050 Climbing Memphis Center
Tue 12:48:43 PM 36.9272 -86.4667 79° East 373 429 15,900 1,050 Climbing Memphis Center
Tue 12:49:43 PM 36.9689 -86.3428 67° East 373 429 16,900 1,000 Climbing Memphis Center
Tue 12:50:43 PM 37.0194 -86.2258 62° Northeast 374 430 17,900 828 Climbing Memphis Center
Tue 12:52:08 PM 37.0931 -86.0689 60° Northeast 388 447 18,900 857 Climbing Indianapolis Center
Tue 12:53:10 PM 37.1453 -85.9456 62° Northeast 395 455 20,000 1,016 Climbing Indianapolis Center
Tue 12:54:12 PM 37.1992 -85.8242 61° Northeast 395 455 21,000 1,024 Climbing Indianapolis Center
Tue 12:55:13 PM 37.2522 -85.7011 62° Northeast 397 457 22,100 1,073 Climbing Indianapolis Center
Tue 12:56:15 PM 37.3036 -85.5842 61° Northeast 394 453 23,200 1,065 Climbing Indianapolis Center
Tue 12:57:17 PM 37.3597 -85.4517 62° Northeast 400 460 24,300 927 Climbing Indianapolis Center
Tue 12:58:18 PM 37.4136 -85.3278 61° Northeast 401 461 25,100 976 Climbing Indianapolis Center
Tue 12:59:20 PM 37.4764 -85.1803 62° Northeast 408 470 26,300 1,073 Climbing Indianapolis Center
Tue 01:00:21 PM 37.5281 -85.0550 62° Northeast 403 464 27,300 1,122 Climbing Indianapolis Center
Tue 01:01:23 PM 37.5808 -84.9311 62° Northeast 401 461 28,600 823 Climbing Indianapolis Center
Tue 01:02:25 PM 37.6336 -84.8072 62° Northeast 400 460 29,000 387 Climbing Indianapolis Center
Tue 01:03:27 PM 37.6900 -84.6750 62° Northeast 418 481 29,400 683 Climbing Indianapolis Center
Tue 01:04:28 PM 37.7458 -84.5425 62° Northeast 425 489 30,400 927 Climbing Indianapolis Center
Tue 01:05:30 PM 37.8011 -84.4094 62° Northeast 423 487 31,300 871 Climbing Indianapolis Center
Tue 01:06:32 PM 37.8644 -84.2556 62° Northeast 422 486 32,200 774 Climbing Indianapolis Center
Tue 01:07:34 PM 37.9206 -84.1214 62° Northeast 426 490 32,900 683 Climbing Indianapolis Center
Tue 01:08:35 PM 37.9750 -83.9858 63° Northeast 430 495 33,600 683 Climbing Indianapolis Center
Tue 01:09:37 PM 38.0297 -83.8506 63° Northeast 431 496 34,300 629 Climbing Indianapolis Center
Tue 01:10:39 PM 38.0875 -83.7111 62° Northeast 440 506 34,900 532 Climbing Indianapolis Center
Tue 01:11:41 PM 38.1431 -83.5750 63° Northeast 435 501 35,400 532 Climbing Indianapolis Center
Tue 01:12:43 PM 38.2064 -83.4139 63° Northeast 434 499 36,000 532 Climbing Indianapolis Center
Tue 01:13:45 PM 38.2614 -83.2750 63° Northeast 438 504 36,500 488 Climbing Indianapolis Center
Tue 01:14:46 PM 38.3164 -83.1372 63° Northeast 437 503 37,000 244 Climbing Indianapolis Center
Tue 01:15:48 PM 38.3733 -82.9989 62° Northeast 438 504 37,000  Level Indianapolis Center
Tue 01:16:50 PM 38.4297 -82.8544 63° Northeast 449 517 37,000  Level Indianapolis Center
Tue 01:17:52 PM 38.4875 -82.7067 63° Northeast 460 529 37,000  Level Indianapolis Center
Tue 01:18:54 PM 38.5467 -82.5575 63° Northeast 468 539 37,000  Level Indianapolis Center
Tue 01:19:56 PM 38.6053 -82.4081 63° Northeast 468 539 37,000  Level Indianapolis Center
Tue 01:20:58 PM 38.6644 -82.2569 63° Northeast 473 544 37,000  Level Indianapolis Center
Tue 01:21:59 PM 38.7336 -82.0761 64° Northeast 471 542 37,000  Level Indianapolis Center
Tue 01:23:01 PM 38.7925 -81.9250 63° Northeast 471 542 37,000  Level Indianapolis Center
Tue 01:24:03 PM 38.8511 -81.7728 64° Northeast 469 540 37,000  Level Indianapolis Center
Tue 01:25:05 PM 38.9103 -81.6194 64° Northeast 471 542 37,000  Level Indianapolis Center
Tue 01:26:07 PM 38.9664 -81.4667 65° Northeast 466 536 37,000  Level Indianapolis Center
Tue 01:27:09 PM 39.0222 -81.3161 64° Northeast 463 533 37,000  Level Indianapolis Center
Tue 01:28:11 PM 39.0794 -81.1661 64° Northeast 465 535 37,000  Level Indianapolis Center
Tue 01:29:13 PM 39.1364 -81.0164 64° Northeast 466 536 37,000  Level Indianapolis Center
Tue 01:30:15 PM 39.1906 -80.8672 65° Northeast 460 529 37,000  Level Indianapolis Center
Tue 01:31:17 PM 39.2444 -80.7178 65° Northeast 460 529 37,000  Level Indianapolis Center
Tue 01:32:19 PM 39.3100 -80.5403 64° Northeast 457 526 37,000 -488 Level Indianapolis Center
Tue 01:33:20 PM 39.3642 -80.3906 65° Northeast 458 527 36,000 -1,512 Descending Indianapolis Center
Tue 01:34:22 PM 39.4194 -80.2400 65° Northeast 461 531 33,900 -1,645 Descending Indianapolis Center
Tue 01:35:24 PM 39.4733 -80.0853 66° East 470 541 32,600 -1,790 Descending Indianapolis Center
Tue 01:36:26 PM 39.5292 -79.9356 64° Northeast 464 534 30,200 -2,468 Descending Indianapolis Center
Tue 01:37:28 PM 39.5519 -79.7756 79° East 456 525 27,500 -2,258 Descending Indianapolis Center
Tue 01:37:59 PM 39.5481 -79.6906 93° East 442 509 26,700 -1,451 Descending Washington Center
Tue 01:38:59 PM 39.5344 -79.5364 96° East 425 489 25,300 -843 Descending Washington Center
Tue 01:40:00 PM 39.5228 -79.3822 96° East 430 495 25,000 -151 Descending Washington Center
Tue 01:40:58 PM 39.5067 -79.2281 98° East 430 495 25,000  Level Washington Center
Tue 01:41:59 PM 39.4925 -79.0714 97° East 430 495 25,000 -590 Level Washington Center
Tue 01:43:00 PM 39.4822 -78.9231 95° East 430 495 23,800 -1,835 Descending Washington Center
Tue 01:44:00 PM 39.4656 -78.7689 98° East 430 495 21,300 -2,339 Descending Washington Center
Tue 01:44:58 PM 39.4547 -78.6181 95° East 424 488 19,200 -2,723 Descending Washington Center
Tue 01:45:59 PM 39.4417 -78.4697 96° East 424 488 15,900 -2,852 Descending Washington Center
Tue 01:47:00 PM 39.4283 -78.3267 97° East 412 474 13,400 -1,462 Descending Washington Center
Tue 01:47:58 PM 39.4150 -78.1811 97° East 407 468 13,000 -203 Descending Washington Center
Tue 01:48:58 PM 39.4033 -78.0411 96° East 407 468 13,000  Level Washington Center
Tue 01:50:00 PM 39.3958 -77.8958 94° East 407 468 13,000 -300 Level Washington Center
Tue 01:50:58 PM 39.4111 -77.7406 83° East 400 460 12,400 -712 Descending Washington Center
Tue 01:51:58 PM 39.4261 -77.5986 82° East 400 460 11,600 -694 Descending Washington Center
Tue 01:52:59 PM 39.4367 -77.4592 84° East 400 460 11,000 -307 Descending Washington Center
Tue 01:54:15 PM 39.4500 -77.2833 84° East 392 451 10,900 -44 Descending Potomac TRACON
Tue 01:55:15 PM 39.4667 -77.1333 82° East 393 452 10,900 -700 Level Potomac TRACON
Tue 01:56:15 PM 39.4833 -77.0000 81° East 368 423 9,500 -1,300 Descending Potomac TRACON
Tue 01:57:15 PM 39.4667 -76.9000 102° East 311 358 8,300 -1,550 Descending Potomac TRACON
Tue 01:58:15 PM 39.4667 -76.7833 90° East 308 354 6,400 -1,800 Descending Potomac TRACON
Tue 01:59:15 PM 39.4333 -76.7000 117° Southeast 293 337 4,700 -1,550 Descending Potomac TRACON
Tue 02:00:15 PM 39.3833 -76.6000 123° Southeast 284 327 3,300 -1,350 Descending Potomac TRACON
Tue 02:01:15 PM 39.3500 -76.5167 117° Southeast 272 313 2,000 -650 Descending Potomac TRACON
Tue 02:02:15 PM 39.3167 -76.4500 123° Southeast 221 254 2,000 -350 Level Potomac TRACON
Tue 02:03:15 PM 39.2833 -76.4000 131° Southeast 203 234 1,300 -850 Descending Potomac TRACON
Tue 02:04:15 PM 39.3000 -76.3833 38° Northeast 170 196 300 -1,000 Descending Potomac TRACON
Tue 02:06:00 PM 39.3167 -76.4000 322° Northwest  Level FlightAware Approximate
Tue 02:13:00 PM 39.3257 -76.4138 322° Northwest  Level Estimated
Tue 02:14:00 PM 39.3257 -76.4138 322° Northwest  Level Estimated
Tue 02:15:00 PM 39.3257 -76.4138 322° Northwest  Level Estimated
Tue 02:16:00 PM 39.3257 -76.4138 322° Northwest  Level Estimated
Tue 02:17:00 PM 39.3257 -76.4138 322° Northwest  Level Estimated
Tue 02:18:00 PM 39.3257 -76.4138 322° Northwest  Level Estimated
Tue 02:19:00 PM 39.3257 -76.4138 322° Northwest  Level Estimated
Tue 02:20:00 PM 39.3257 -76.4138 322° Northwest  Level Estimated

Login

Don't have an account? Register now (free) for customized features, flight alerts, and more!